Time;durP1;ratioP1;P1;durP2;ratioP2;P2;SDS_P1;SDS_P2;PMS_P1;PMS_P2;Temp;Humidity;BMP_temperature;BMP_pressure;BME280_temperature;BME280_humidity;BME280_pressure;Samples;Min_cycle;Max_cycle;Signal;HPM_P1;HPM_P2
2022/07/27 00:02:15;;;;;;;2.60;2.40;;;;;;;;;;4998621;28;20440;-76
2022/07/27 00:04:42;;;;;;;3.13;2.30;;;;;;;;;;4993749;28;20519;-76
2022/07/27 00:07:11;;;;;;;3.23;2.53;;;;;;;;;;4993676;28;20820;-76
2022/07/27 00:09:38;;;;;;;4.53;3.27;;;;;;;;;;5000497;28;20440;-75
2022/07/27 00:12:05;;;;;;;2.70;2.50;;;;;;;;;;5013337;28;20448;-75
2022/07/27 00:14:32;;;;;;;5.80;2.53;;;;;;;;;;5013265;28;20479;-75
2022/07/27 00:16:59;;;;;;;2.40;2.20;;;;;;;;;;5014068;28;20451;-76
2022/07/27 00:19:26;;;;;;;3.63;2.80;;;;;;;;;;5013775;28;20803;-78
2022/07/27 00:21:53;;;;;;;3.40;3.20;;;;;;;;;;5013592;28;20462;-78
2022/07/27 00:24:22;;;;;;;3.80;2.17;;;;;;;;;;5013463;28;20472;-77
2022/07/27 00:26:49;;;;;;;3.03;2.83;;;;;;;;;;5013866;28;21005;-74
2022/07/27 00:29:16;;;;;;;3.73;3.17;;;;;;;;;;5013331;28;20442;-75
2022/07/27 00:31:43;;;;;;;3.40;2.97;;;;;;;;;;5013273;28;20455;-78
2022/07/27 00:34:10;;;;;;;3.77;2.80;;;;;;;;;;5011984;28;20467;-76
2022/07/27 00:36:37;;;;;;;3.33;3.00;;;;;;;;;;5013648;28;20494;-76
2022/07/27 00:39:04;;;;;;;3.60;3.30;;;;;;;;;;5012890;28;21062;-75
2022/07/27 00:41:32;;;;;;;3.60;2.80;;;;;;;;;;5012161;28;20455;-77
2022/07/27 00:44:00;;;;;;;2.97;2.73;;;;;;;;;;5009535;28;20994;-77
2022/07/27 00:46:28;;;;;;;3.70;2.67;;;;;;;;;;5011614;28;20489;-77
2022/07/27 00:48:55;;;;;;;3.33;3.07;;;;;;;;;;5013791;28;20435;-77
2022/07/27 00:51:22;;;;;;;4.30;2.80;;;;;;;;;;5013798;28;20455;-77
2022/07/27 00:53:49;;;;;;;3.40;3.10;;;;;;;;;;5014673;28;20466;-76
2022/07/27 00:56:16;;;;;;;3.70;3.40;;;;;;;;;;5016096;28;20463;-75
2022/07/27 00:58:46;;;;;;;3.30;3.10;;;;;;;;;;5019562;28;20530;-77
2022/07/27 01:01:13;;;;;;;3.83;3.37;;;;;;;;;;5020741;28;20446;-76
2022/07/27 01:03:40;;;;;;;3.87;3.57;;;;;;;;;;5024884;28;20464;-75
2022/07/27 01:06:07;;;;;;;3.63;3.33;;;;;;;;;;5037532;28;20461;-75
2022/07/27 01:08:34;;;;;;;3.57;3.27;;;;;;;;;;5035495;28;20466;-76
2022/07/27 01:11:02;;;;;;;3.43;3.03;;;;;;;;;;5003983;28;20857;-74
2022/07/27 01:13:29;;;;;;;4.37;3.20;;;;;;;;;;5001389;28;20519;-75
2022/07/27 01:15:58;;;;;;;4.00;3.63;;;;;;;;;;4997896;28;20457;-75
2022/07/27 01:18:29;;;;;;;4.10;3.40;;;;;;;;;;4998608;28;20519;-76
2022/07/27 01:20:56;;;;;;;4.03;3.73;;;;;;;;;;5007046;28;20479;-74
2022/07/27 01:23:25;;;;;;;6.40;3.50;;;;;;;;;;5011570;28;20972;-76
2022/07/27 01:25:52;;;;;;;3.80;3.17;;;;;;;;;;5011927;28;20435;-75
2022/07/27 01:28:19;;;;;;;3.83;3.53;;;;;;;;;;5017291;28;20437;-75
2022/07/27 01:30:46;;;;;;;3.63;3.17;;;;;;;;;;5017637;28;20424;-74
2022/07/27 01:33:13;;;;;;;4.00;3.20;;;;;;;;;;5003201;28;20972;-74
2022/07/27 01:35:40;;;;;;;3.70;3.40;;;;;;;;;;5002156;28;20436;-75
2022/07/27 01:38:08;;;;;;;3.17;2.97;;;;;;;;;;4998476;28;20467;-76
2022/07/27 01:40:38;;;;;;;3.47;3.20;;;;;;;;;;4996347;28;20511;-75
2022/07/27 01:43:06;;;;;;;5.73;3.17;;;;;;;;;;4996851;28;20535;-76
2022/07/27 01:45:33;;;;;;;3.90;3.60;;;;;;;;;;4996663;28;20948;-76
2022/07/27 01:48:00;;;;;;;3.53;3.20;;;;;;;;;;4997003;28;20507;-77
2022/07/27 01:50:27;;;;;;;3.77;3.47;;;;;;;;;;4996620;28;20525;-75
2022/07/27 01:52:54;;;;;;;3.60;3.27;;;;;;;;;;4996203;28;20452;-77
2022/07/27 01:55:21;;;;;;;3.90;3.60;;;;;;;;;;4995731;28;20452;-75
2022/07/27 01:57:49;;;;;;;3.50;3.30;;;;;;;;;;4994797;28;20448;-75
2022/07/27 02:00:16;;;;;;;6.20;3.50;;;;;;;;;;4995550;28;20522;-75
2022/07/27 02:02:43;;;;;;;6.77;3.57;;;;;;;;;;4995148;28;20440;-76
2022/07/27 02:05:11;;;;;;;3.67;3.40;;;;;;;;;;4996477;28;20452;-77
2022/07/27 02:07:38;;;;;;;3.93;3.63;;;;;;;;;;4996909;28;20448;-75
2022/07/27 02:10:06;;;;;;;7.70;3.40;;;;;;;;;;5017683;28;20459;-75
2022/07/27 02:12:35;;;;;;;3.43;3.23;;;;;;;;;;5022914;28;20997;-76
2022/07/27 02:15:03;;;;;;;4.97;3.37;;;;;;;;;;5011802;28;20563;-75
2022/07/27 02:17:30;;;;;;;5.50;3.50;;;;;;;;;;5012052;28;20497;-77
2022/07/27 02:19:57;;;;;;;3.90;3.60;;;;;;;;;;5011594;28;20898;-75
2022/07/27 02:22:24;;;;;;;3.80;3.50;;;;;;;;;;5014282;28;20427;-75
2022/07/27 02:24:52;;;;;;;5.50;3.83;;;;;;;;;;5013729;28;20471;-73
2022/07/27 02:27:19;;;;;;;4.40;3.70;;;;;;;;;;5013785;28;20455;-76
2022/07/27 02:29:46;;;;;;;4.00;3.70;;;;;;;;;;5022484;28;20435;-77
2022/07/27 02:32:14;;;;;;;4.23;3.93;;;;;;;;;;5016980;28;20452;-75
2022/07/27 02:34:41;;;;;;;3.90;3.47;;;;;;;;;;5016658;28;20579;-76
2022/07/27 02:37:08;;;;;;;4.03;3.73;;;;;;;;;;5018204;28;20502;-74
2022/07/27 02:39:35;;;;;;;5.37;3.40;;;;;;;;;;5019094;28;20479;-76
2022/07/27 02:42:02;;;;;;;4.10;3.63;;;;;;;;;;5020081;28;20443;-75
2022/07/27 02:44:29;;;;;;;3.97;3.60;;;;;;;;;;5018753;28;20451;-76
2022/07/27 02:46:56;;;;;;;4.03;3.83;;;;;;;;;;5019415;28;20470;-75
2022/07/27 02:49:25;;;;;;;4.17;3.87;;;;;;;;;;5015927;28;20451;-77
2022/07/27 02:51:52;;;;;;;4.13;3.87;;;;;;;;;;5017784;28;20804;-76
2022/07/27 02:54:20;;;;;;;4.50;4.10;;;;;;;;;;5017066;28;20473;-75
2022/07/27 02:56:47;;;;;;;4.10;3.70;;;;;;;;;;5017168;28;20475;-75
2022/07/27 02:59:16;;;;;;;5.37;4.00;;;;;;;;;;5017497;28;20527;-76
2022/07/27 03:01:43;;;;;;;4.27;3.77;;;;;;;;;;5014631;28;20452;-75
2022/07/27 03:04:10;;;;;;;4.70;4.20;;;;;;;;;;5020342;28;20459;-76
2022/07/27 03:06:39;;;;;;;5.17;4.77;;;;;;;;;;5013844;28;20443;-74
2022/07/27 03:09:06;;;;;;;4.40;4.00;;;;;;;;;;5009841;28;20501;-76
2022/07/27 03:11:33;;;;;;;4.40;4.10;;;;;;;;;;4991783;28;20495;-76
2022/07/27 03:14:00;;;;;;;4.57;4.17;;;;;;;;;;4991931;28;20472;-76
2022/07/27 03:16:27;;;;;;;4.40;3.83;;;;;;;;;;4991731;28;20452;-76
2022/07/27 03:18:54;;;;;;;4.47;4.17;;;;;;;;;;4992077;28;20873;-76
2022/07/27 03:21:21;;;;;;;4.20;3.80;;;;;;;;;;4991811;28;20480;-76
2022/07/27 03:23:49;;;;;;;3.87;3.57;;;;;;;;;;4992268;28;20464;-75
2022/07/27 03:26:18;;;;;;;4.30;4.00;;;;;;;;;;4992086;28;20453;-76
2022/07/27 03:28:45;;;;;;;3.70;3.50;;;;;;;;;;4992083;28;20452;-77
2022/07/27 03:31:12;;;;;;;6.10;4.30;;;;;;;;;;4992043;28;20448;-76
2022/07/27 03:33:39;;;;;;;4.40;4.00;;;;;;;;;;4994139;28;20476;-78
2022/07/27 03:36:07;;;;;;;4.70;4.17;;;;;;;;;;4995904;28;20449;-77
2022/07/27 03:38:34;;;;;;;4.87;4.43;;;;;;;;;;5003647;28;20469;-77
2022/07/27 03:41:02;;;;;;;4.50;4.20;;;;;;;;;;4997377;28;20534;-76
2022/07/27 03:43:29;;;;;;;4.27;3.87;;;;;;;;;;4992179;28;20472;-75
2022/07/27 03:45:56;;;;;;;4.43;4.10;;;;;;;;;;4992903;28;20869;-76
2022/07/27 03:48:23;;;;;;;4.63;4.23;;;;;;;;;;4992836;28;20448;-75
2022/07/27 03:50:50;;;;;;;5.03;4.63;;;;;;;;;;4992397;28;20519;-77
2022/07/27 03:53:20;;;;;;;4.73;4.33;;;;;;;;;;4992251;28;20460;-75
2022/07/27 03:55:47;;;;;;;5.07;4.77;;;;;;;;;;4992393;28;20825;-75
2022/07/27 03:58:15;;;;;;;7.13;4.63;;;;;;;;;;4992487;28;20515;-76
2022/07/27 04:00:43;;;;;;;5.00;4.47;;;;;;;;;;4991789;28;20478;-75
2022/07/27 04:03:10;;;;;;;4.40;4.00;;;;;;;;;;4991154;28;20836;-76
2022/07/27 04:05:37;;;;;;;4.87;4.57;;;;;;;;;;4991558;28;20437;-76
2022/07/27 04:08:04;;;;;;;4.63;4.30;;;;;;;;;;4992218;28;20448;-75
2022/07/27 04:10:31;;;;;;;5.00;4.60;;;;;;;;;;5005040;28;20439;-76
2022/07/27 04:12:58;;;;;;;5.07;4.53;;;;;;;;;;5011153;28;20963;-76
2022/07/27 04:15:26;;;;;;;4.90;4.60;;;;;;;;;;5013782;28;20509;-75
2022/07/27 04:17:54;;;;;;;5.03;4.53;;;;;;;;;;5019144;28;20446;-77
2022/07/27 04:20:21;;;;;;;5.70;4.30;;;;;;;;;;5026052;28;20482;-75
2022/07/27 04:22:48;;;;;;;5.57;5.07;;;;;;;;;;5027064;28;20451;-75
2022/07/27 04:25:15;;;;;;;5.40;4.90;;;;;;;;;;5015962;28;20448;-76
2022/07/27 04:27:42;;;;;;;5.40;4.90;;;;;;;;;;5013826;28;20450;-75
2022/07/27 04:30:10;;;;;;;7.00;5.50;;;;;;;;;;5014364;28;20451;-77
2022/07/27 04:32:38;;;;;;;6.53;5.40;;;;;;;;;;5013753;28;20490;-76
2022/07/27 04:35:06;;;;;;;7.63;5.20;;;;;;;;;;5014946;28;20467;-76
2022/07/27 04:37:33;;;;;;;5.97;5.40;;;;;;;;;;5016135;28;20451;-76
2022/07/27 04:40:00;;;;;;;5.30;4.97;;;;;;;;;;5015575;28;20451;-76
2022/07/27 04:42:28;;;;;;;4.97;4.67;;;;;;;;;;5018571;28;20446;-76
2022/07/27 04:44:55;;;;;;;6.43;5.40;;;;;;;;;;5019589;28;20474;-78
2022/07/27 04:47:22;;;;;;;5.80;5.30;;;;;;;;;;5016938;28;20878;-77
2022/07/27 04:49:51;;;;;;;6.27;5.70;;;;;;;;;;5016431;28;20497;-78
2022/07/27 04:52:18;;;;;;;5.60;5.20;;;;;;;;;;5014911;28;20458;-75
2022/07/27 04:54:45;;;;;;;6.97;5.27;;;;;;;;;;5014097;28;20883;-77
2022/07/27 04:57:12;;;;;;;5.67;5.17;;;;;;;;;;5014783;28;20505;-76
2022/07/27 04:59:39;;;;;;;5.33;4.93;;;;;;;;;;5014795;28;20493;-77
2022/07/27 05:02:06;;;;;;;5.87;5.40;;;;;;;;;;5013913;28;20483;-76
2022/07/27 05:04:33;;;;;;;6.50;6.00;;;;;;;;;;5013448;28;20522;-76
2022/07/27 05:07:01;;;;;;;5.87;5.37;;;;;;;;;;5013330;28;20950;-76
2022/07/27 05:09:28;;;;;;;6.40;5.50;;;;;;;;;;5008650;28;20440;-75
2022/07/27 05:11:55;;;;;;;6.80;6.20;;;;;;;;;;4993821;28;20444;-76
2022/07/27 05:14:22;;;;;;;6.10;5.70;;;;;;;;;;4992979;28;20569;-75
2022/07/27 05:16:50;;;;;;;6.57;5.87;;;;;;;;;;4993657;28;20464;-76
2022/07/27 05:19:17;;;;;;;7.30;5.87;;;;;;;;;;4993594;28;20923;-77
2022/07/27 05:21:44;;;;;;;6.60;6.10;;;;;;;;;;4993358;28;20542;-77
2022/07/27 05:24:12;;;;;;;6.83;6.23;;;;;;;;;;4993160;28;20472;-77
2022/07/27 05:26:39;;;;;;;5.23;4.90;;;;;;;;;;4993201;28;20503;-75
2022/07/27 05:29:06;;;;;;;6.20;5.83;;;;;;;;;;4993298;28;20526;-76
2022/07/27 05:31:33;;;;;;;5.90;5.50;;;;;;;;;;4993269;28;20440;-76
2022/07/27 05:34:00;;;;;;;6.47;5.97;;;;;;;;;;4991293;28;20468;-76
2022/07/27 05:36:27;;;;;;;6.67;5.70;;;;;;;;;;4993164;28;20467;-77
2022/07/27 05:38:54;;;;;;;6.00;5.60;;;;;;;;;;4993668;28;20448;-77
2022/07/27 05:41:24;;;;;;;6.40;5.90;;;;;;;;;;4993373;28;20486;-75
2022/07/27 05:43:53;;;;;;;6.27;5.70;;;;;;;;;;4993305;28;20560;-75
2022/07/27 05:46:20;;;;;;;6.60;6.00;;;;;;;;;;4994518;28;20452;-77
2022/07/27 05:48:47;;;;;;;7.23;6.57;;;;;;;;;;5003899;28;20452;-76
2022/07/27 05:51:14;;;;;;;5.80;5.23;;;;;;;;;;5001135;28;20440;-76
2022/07/27 05:53:41;;;;;;;7.30;6.60;;;;;;;;;;4992340;28;20512;-77
2022/07/27 05:56:08;;;;;;;6.27;5.77;;;;;;;;;;4993145;28;20444;-75
2022/07/27 05:58:36;;;;;;;5.90;5.50;;;;;;;;;;4993564;28;20448;-77
2022/07/27 06:01:04;;;;;;;6.70;6.10;;;;;;;;;;4993589;28;20570;-76
2022/07/27 06:03:31;;;;;;;7.27;6.47;;;;;;;;;;4992924;28;20465;-77
2022/07/27 06:08:38;;;;;;;7.57;5.93;;;;;;;;;;4992960;28;20555;-75
2022/07/27 06:11:05;;;;;;;7.40;5.60;;;;;;;;;;5010799;28;20460;-75
2022/07/27 06:13:34;;;;;;;6.20;5.70;;;;;;;;;;5012534;28;20503;-77
2022/07/27 06:16:03;;;;;;;6.10;5.70;;;;;;;;;;5013418;28;20443;-77
2022/07/27 06:18:30;;;;;;;6.97;6.40;;;;;;;;;;5012168;28;20896;-76
2022/07/27 06:20:58;;;;;;;5.80;5.30;;;;;;;;;;5012330;28;20479;-76
2022/07/27 06:23:25;;;;;;;5.77;5.37;;;;;;;;;;5011608;28;20571;-76
2022/07/27 06:25:52;;;;;;;6.27;5.60;;;;;;;;;;5011823;28;20530;-77
2022/07/27 06:28:19;;;;;;;8.97;6.10;;;;;;;;;;5012044;28;20490;-76
2022/07/27 06:30:46;;;;;;;6.43;6.03;;;;;;;;;;5011989;28;20443;-76
2022/07/27 06:33:15;;;;;;;5.73;5.27;;;;;;;;;;5011733;28;20982;-76
2022/07/27 06:35:42;;;;;;;6.00;5.27;;;;;;;;;;5012134;28;21032;-78
2022/07/27 06:38:09;;;;;;;5.80;5.37;;;;;;;;;;5012107;28;20446;-76
2022/07/27 06:40:36;;;;;;;6.17;5.77;;;;;;;;;;5012891;28;20455;-77
2022/07/27 06:43:03;;;;;;;6.43;5.93;;;;;;;;;;5012101;28;20427;-76
2022/07/27 06:45:30;;;;;;;6.07;5.57;;;;;;;;;;5012498;28;20455;-76
2022/07/27 06:47:57;;;;;;;6.87;6.37;;;;;;;;;;5012251;28;20506;-76
2022/07/27 06:50:26;;;;;;;6.80;6.30;;;;;;;;;;5012649;28;20510;-78
2022/07/27 06:52:53;;;;;;;5.90;5.53;;;;;;;;;;5011807;28;20447;-76
2022/07/27 06:55:20;;;;;;;5.90;5.60;;;;;;;;;;5012777;28;20443;-78
2022/07/27 06:57:47;;;;;;;5.77;5.37;;;;;;;;;;5011910;28;20896;-76
2022/07/27 07:00:15;;;;;;;6.47;5.87;;;;;;;;;;5012341;28;20452;-78
2022/07/27 07:02:51;;;;;;;5.97;5.53;;;;;;;;;;5011255;28;20597;-76
2022/07/27 07:05:18;;;;;;;6.00;5.53;;;;;;;;;;5011836;28;20431;-77
2022/07/27 07:07:46;;;;;;;5.40;4.80;;;;;;;;;;5012153;28;20946;-78
2022/07/27 07:10:13;;;;;;;4.90;4.50;;;;;;;;;;5000450;28;20487;-77
2022/07/27 07:12:41;;;;;;;6.03;5.50;;;;;;;;;;4991152;28;20448;-75
2022/07/27 07:15:08;;;;;;;6.83;5.30;;;;;;;;;;4991530;28;20920;-76
2022/07/27 07:17:35;;;;;;;5.93;5.53;;;;;;;;;;4991642;28;20881;-77
2022/07/27 07:20:02;;;;;;;5.57;5.20;;;;;;;;;;4991870;28;20463;-77
2022/07/27 07:22:32;;;;;;;5.80;5.40;;;;;;;;;;4991233;28;20558;-75
2022/07/27 07:25:00;;;;;;;5.63;5.13;;;;;;;;;;4991587;28;20757;-75
2022/07/27 07:27:27;;;;;;;5.67;5.37;;;;;;;;;;4991347;28;20460;-75
2022/07/27 07:29:55;;;;;;;5.90;5.50;;;;;;;;;;4992353;28;20824;-76
2022/07/27 07:32:23;;;;;;;5.90;4.93;;;;;;;;;;4992522;28;20440;-75
2022/07/27 07:34:51;;;;;;;5.27;4.87;;;;;;;;;;4992681;28;20475;-77
2022/07/27 07:37:18;;;;;;;6.57;5.17;;;;;;;;;;4991756;28;20436;-76
2022/07/27 07:39:45;;;;;;;5.87;5.37;;;;;;;;;;4992165;28;20459;-77
2022/07/27 07:42:13;;;;;;;6.10;5.50;;;;;;;;;;4990845;28;20522;-75
2022/07/27 07:44:40;;;;;;;6.30;5.80;;;;;;;;;;4991189;28;20480;-76
2022/07/27 07:47:08;;;;;;;5.57;5.20;;;;;;;;;;4991722;28;20467;-77
2022/07/27 07:49:35;;;;;;;5.67;5.23;;;;;;;;;;4991699;28;20452;-78
2022/07/27 07:52:02;;;;;;;8.63;5.30;;;;;;;;;;4991400;28;20436;-76
2022/07/27 07:54:29;;;;;;;5.80;5.30;;;;;;;;;;4994403;28;20472;-76
2022/07/27 07:56:56;;;;;;;9.40;5.00;;;;;;;;;;4996058;28;20490;-75
2022/07/27 07:59:25;;;;;;;7.40;5.70;;;;;;;;;;4995976;28;20778;-77
2022/07/27 08:01:52;;;;;;;5.40;5.00;;;;;;;;;;4995126;28;20483;-77
2022/07/27 08:04:19;;;;;;;7.53;5.40;;;;;;;;;;4994899;28;20469;-76
2022/07/27 08:06:46;;;;;;;6.23;5.63;;;;;;;;;;4995399;28;20877;-76
2022/07/27 08:09:15;;;;;;;4.80;4.40;;;;;;;;;;4997637;28;20454;-76
2022/07/27 08:11:42;;;;;;;6.33;5.70;;;;;;;;;;5014737;28;20534;-77
2022/07/27 08:14:09;;;;;;;7.97;5.97;;;;;;;;;;5014730;28;20479;-76
2022/07/27 08:16:38;;;;;;;5.90;5.40;;;;;;;;;;5015258;28;20858;-78
2022/07/27 08:19:05;;;;;;;5.90;5.30;;;;;;;;;;5016223;28;20440;-77
2022/07/27 08:21:32;;;;;;;5.67;5.27;;;;;;;;;;5022579;28;20483;-76
2022/07/27 08:23:59;;;;;;;6.57;4.70;;;;;;;;;;5015692;28;20467;-76
2022/07/27 08:26:26;;;;;;;5.77;5.20;;;;;;;;;;5015047;28;20939;-77
2022/07/27 08:28:53;;;;;;;5.37;4.87;;;;;;;;;;5015488;28;20455;-78
2022/07/27 08:31:20;;;;;;;5.73;4.80;;;;;;;;;;5016907;28;20435;-76
2022/07/27 08:33:48;;;;;;;6.57;5.23;;;;;;;;;;5015300;28;20493;-76
2022/07/27 08:36:15;;;;;;;6.03;5.63;;;;;;;;;;5014780;28;20525;-77
2022/07/27 08:38:42;;;;;;;5.77;5.37;;;;;;;;;;5015102;28;20508;-76
2022/07/27 08:41:10;;;;;;;5.73;5.23;;;;;;;;;;5014328;28;20762;-76
2022/07/27 08:43:38;;;;;;;5.70;5.30;;;;;;;;;;5013388;28;20494;-76
2022/07/27 08:46:05;;;;;;;5.33;4.87;;;;;;;;;;5013556;28;20845;-75
2022/07/27 08:48:32;;;;;;;5.53;5.13;;;;;;;;;;5013519;28;20797;-78
2022/07/27 08:51:00;;;;;;;9.77;5.20;;;;;;;;;;5014016;28;20447;-75
2022/07/27 08:53:31;;;;;;;5.60;5.20;;;;;;;;;;5013396;28;20886;-76
2022/07/27 08:55:58;;;;;;;6.07;5.20;;;;;;;;;;5013654;28;20451;-76
2022/07/27 08:58:25;;;;;;;6.33;5.20;;;;;;;;;;5013662;28;20443;-76
2022/07/27 09:00:52;;;;;;;6.07;5.67;;;;;;;;;;5013316;28;20973;-78
2022/07/27 09:03:21;;;;;;;5.43;5.03;;;;;;;;;;5012895;28;20559;-77
2022/07/27 09:05:50;;;;;;;5.73;5.23;;;;;;;;;;5013361;28;20455;-77
2022/07/27 09:08:21;;;;;;;8.33;5.10;;;;;;;;;;5012798;28;20455;-76
2022/07/27 09:10:48;;;;;;;5.30;4.90;;;;;;;;;;4997385;28;20956;-77
2022/07/27 09:13:23;;;;;;;5.23;4.83;;;;;;;;;;4993675;28;20976;-76
2022/07/27 09:15:50;;;;;;;7.60;5.20;;;;;;;;;;4993149;28;20470;-75
2022/07/27 09:18:19;;;;;;;5.97;4.70;;;;;;;;;;4992965;28;20811;-76
2022/07/27 09:20:46;;;;;;;5.30;4.80;;;;;;;;;;4993444;28;20527;-75
2022/07/27 09:23:25;;;;;;;7.87;5.57;;;;;;;;;;4992799;28;20484;-76
2022/07/27 09:26:09;;;;;;;7.40;4.97;;;;;;;;;;4993300;28;20479;-76
2022/07/27 09:28:36;;;;;;;7.73;4.70;;;;;;;;;;4992840;28;21023;-74
2022/07/27 09:31:06;;;;;;;5.80;5.40;;;;;;;;;;4992765;28;20475;-76
2022/07/27 09:33:40;;;;;;;6.60;4.73;;;;;;;;;;4993007;28;20555;-77
2022/07/27 09:36:07;;;;;;;4.93;4.53;;;;;;;;;;4992911;28;20506;-77
2022/07/27 09:38:34;;;;;;;12.30;5.47;;;;;;;;;;4993022;28;20846;-76
2022/07/27 09:41:03;;;;;;;5.10;4.70;;;;;;;;;;4992512;28;20444;-76
2022/07/27 09:43:32;;;;;;;5.10;4.80;;;;;;;;;;4992230;28;20487;-74
2022/07/27 09:46:06;;;;;;;14.23;4.97;;;;;;;;;;4992725;28;20440;-77
2022/07/27 09:48:34;;;;;;;5.83;5.33;;;;;;;;;;4992523;28;20911;-75
2022/07/27 09:51:02;;;;;;;10.57;5.47;;;;;;;;;;4992523;28;20450;-76
2022/07/27 09:53:31;;;;;;;5.03;4.73;;;;;;;;;;4992259;28;21031;-75
2022/07/27 09:55:59;;;;;;;5.77;5.13;;;;;;;;;;4992305;28;20972;-76
2022/07/27 09:58:40;;;;;;;4.93;4.57;;;;;;;;;;4993354;28;20498;-77
2022/07/27 10:01:08;;;;;;;5.37;4.87;;;;;;;;;;4993039;28;20459;-76
2022/07/27 10:03:35;;;;;;;5.40;4.90;;;;;;;;;;4992388;28;20541;-78
2022/07/27 10:06:03;;;;;;;5.87;4.83;;;;;;;;;;4993335;28;20456;-78
2022/07/27 10:08:30;;;;;;;6.33;4.30;;;;;;;;;;4993061;28;20872;-78
2022/07/27 10:10:57;;;;;;;6.10;4.30;;;;;;;;;;5009509;28;20444;-75
2022/07/27 10:13:24;;;;;;;9.63;5.83;;;;;;;;;;5011798;28;20474;-76
2022/07/27 10:15:53;;;;;;;4.67;4.37;;;;;;;;;;5011831;28;20998;-76
2022/07/27 10:18:28;;;;;;;4.80;4.50;;;;;;;;;;5011415;28;20796;-78
2022/07/27 10:20:56;;;;;;;4.80;4.50;;;;;;;;;;5011692;28;20763;-76
2022/07/27 10:23:27;;;;;;;5.00;4.60;;;;;;;;;;5011217;28;20921;-76
2022/07/27 10:26:08;;;;;;;4.57;4.10;;;;;;;;;;5011622;28;20543;-77
2022/07/27 10:28:49;;;;;;;6.07;5.17;;;;;;;;;;4999872;28;21084;-76
2022/07/27 10:31:18;;;;;;;4.93;4.53;;;;;;;;;;5012440;28;20443;-78
2022/07/27 10:33:46;;;;;;;4.37;3.97;;;;;;;;;;5012043;28;20539;-78
2022/07/27 10:36:15;;;;;;;4.60;4.30;;;;;;;;;;5012118;28;20466;-77
2022/07/27 10:38:46;;;;;;;5.10;4.70;;;;;;;;;;5012301;28;21002;-77
2022/07/27 10:41:23;;;;;;;5.00;4.60;;;;;;;;;;5011476;28;20530;-77
2022/07/27 10:43:51;;;;;;;6.00;4.17;;;;;;;;;;5013001;28;20549;-77
2022/07/27 10:46:21;;;;;;;26.07;5.93;;;;;;;;;;5020208;28;20452;-75
2022/07/27 10:48:48;;;;;;;6.13;4.20;;;;;;;;;;5014429;28;20443;-77
2022/07/27 10:51:15;;;;;;;4.37;3.90;;;;;;;;;;5011680;28;20464;-77
2022/07/27 10:53:43;;;;;;;4.73;4.40;;;;;;;;;;5011327;28;21007;-76
2022/07/27 10:56:10;;;;;;;4.40;4.00;;;;;;;;;;5033668;28;20455;-75
2022/07/27 10:58:45;;;;;;;4.03;3.73;;;;;;;;;;5021976;28;20505;-76
2022/07/27 11:01:13;;;;;;;5.87;4.17;;;;;;;;;;5018569;28;20479;-77
2022/07/27 11:03:46;;;;;;;5.23;3.70;;;;;;;;;;5012967;28;20521;-76
2022/07/27 11:06:19;;;;;;;4.13;3.40;;;;;;;;;;5017677;28;21018;-75
2022/07/27 11:08:47;;;;;;;10.83;4.00;;;;;;;;;;5016833;28;20427;-76
2022/07/27 11:11:15;;;;;;;4.23;3.50;;;;;;;;;;4996857;28;20527;-76
2022/07/27 11:13:42;;;;;;;4.17;3.77;;;;;;;;;;4995261;28;20468;-76
2022/07/27 11:16:10;;;;;;;3.70;3.50;;;;;;;;;;4995132;28;20479;-77
2022/07/27 11:18:38;;;;;;;3.63;3.33;;;;;;;;;;4995281;28;20495;-77
2022/07/27 11:21:17;;;;;;;3.57;3.43;;;;;;;;;;4996537;28;20453;-76
2022/07/27 11:23:45;;;;;;;4.03;3.67;;;;;;;;;;4996693;28;20546;-75
2022/07/27 11:26:12;;;;;;;7.90;3.30;;;;;;;;;;4997057;28;20535;-77
2022/07/27 11:28:39;;;;;;;3.80;3.50;;;;;;;;;;4994482;28;20519;-77
2022/07/27 11:31:07;;;;;;;8.50;3.50;;;;;;;;;;4992248;28;20952;-76
2022/07/27 11:33:35;;;;;;;10.20;3.60;;;;;;;;;;4992809;28;20468;-76
2022/07/27 11:36:03;;;;;;;5.50;3.50;;;;;;;;;;4993246;28;20513;-78
2022/07/27 11:38:44;;;;;;;3.20;3.00;;;;;;;;;;4991913;28;20444;-77
2022/07/27 11:41:12;;;;;;;4.10;3.53;;;;;;;;;;4992366;28;20507;-76
2022/07/27 11:43:40;;;;;;;10.03;3.20;;;;;;;;;;4991433;28;20488;-75
2022/07/27 11:46:14;;;;;;;3.30;3.10;;;;;;;;;;4993626;28;20436;-76
2022/07/27 11:48:46;;;;;;;11.53;3.90;;;;;;;;;;4996158;28;20448;-76
2022/07/27 11:51:15;;;;;;;7.27;3.30;;;;;;;;;;4997674;28;20444;-77
2022/07/27 11:53:44;;;;;;;3.03;2.60;;;;;;;;;;4996162;28;20552;-78
2022/07/27 11:56:11;;;;;;;3.37;3.10;;;;;;;;;;4996244;28;20445;-76
2022/07/27 11:58:57;;;;;;;4.93;3.03;;;;;;;;;;4996344;28;20515;-76
2022/07/27 12:01:27;;;;;;;4.03;2.90;;;;;;;;;;4992951;28;20501;-77
2022/07/27 12:04:03;;;;;;;3.13;2.40;;;;;;;;;;4991968;28;20491;-77
2022/07/27 12:06:31;;;;;;;4.70;3.23;;;;;;;;;;4991539;28;20506;-76
2022/07/27 12:09:00;;;;;;;3.93;2.93;;;;;;;;;;4991488;28;20523;-75
2022/07/27 12:11:30;;;;;;;10.67;3.63;;;;;;;;;;5011127;28;20849;-77
2022/07/27 12:13:58;;;;;;;4.97;3.40;;;;;;;;;;5010635;28;20475;-77
2022/07/27 12:16:25;;;;;;;3.13;2.73;;;;;;;;;;5010896;28;20486;-77
2022/07/27 12:18:52;;;;;;;2.80;2.70;;;;;;;;;;5011236;28;20546;-76
2022/07/27 12:21:20;;;;;;;4.13;2.80;;;;;;;;;;5010039;28;20474;-77
2022/07/27 12:23:51;;;;;;;2.33;2.23;;;;;;;;;;5010300;28;21093;-77
2022/07/27 12:26:21;;;;;;;3.47;3.03;;;;;;;;;;5011167;28;20838;-76
2022/07/27 12:29:03;;;;;;;2.70;2.50;;;;;;;;;;5011190;28;20505;-76
2022/07/27 12:31:30;;;;;;;2.83;2.63;;;;;;;;;;5010021;28;20600;-77
2022/07/27 12:33:57;;;;;;;8.43;3.30;;;;;;;;;;5009896;28;20455;-76
2022/07/27 12:36:26;;;;;;;2.40;2.30;;;;;;;;;;5011091;28;20443;-76
2022/07/27 12:38:53;;;;;;;2.50;2.30;;;;;;;;;;5011041;28;20498;-76
2022/07/27 12:41:28;;;;;;;2.50;2.33;;;;;;;;;;5010716;28;20919;-76
2022/07/27 12:44:05;;;;;;;2.60;2.10;;;;;;;;;;5013622;28;20557;-77
2022/07/27 12:46:32;;;;;;;2.30;2.20;;;;;;;;;;5014040;28;20496;-78
2022/07/27 12:48:59;;;;;;;4.53;2.37;;;;;;;;;;5013989;28;20497;-75
2022/07/27 12:51:26;;;;;;;3.33;2.47;;;;;;;;;;5013852;28;20447;-75
2022/07/27 12:53:53;;;;;;;2.57;2.27;;;;;;;;;;5013710;28;20467;-79
2022/07/27 12:56:20;;;;;;;2.40;2.20;;;;;;;;;;5014379;28;20439;-78
2022/07/27 12:59:01;;;;;;;3.27;2.63;;;;;;;;;;5013901;28;20941;-77
2022/07/27 13:01:28;;;;;;;2.60;2.40;;;;;;;;;;5014736;28;20454;-75
2022/07/27 13:03:55;;;;;;;2.30;2.00;;;;;;;;;;5013900;28;20482;-77
2022/07/27 13:06:22;;;;;;;2.33;2.23;;;;;;;;;;5013809;28;20455;-77
2022/07/27 13:08:49;;;;;;;2.17;2.07;;;;;;;;;;5013410;28;20501;-78
2022/07/27 13:11:17;;;;;;;2.50;2.30;;;;;;;;;;4994046;28;20452;-78
2022/07/27 13:13:44;;;;;;;4.30;2.50;;;;;;;;;;4993377;28;20476;-77
2022/07/27 13:16:12;;;;;;;15.80;3.80;;;;;;;;;;4993530;28;20444;-76
2022/07/27 13:18:39;;;;;;;3.37;2.47;;;;;;;;;;4993594;28;20470;-76
2022/07/27 13:21:06;;;;;;;3.77;2.40;;;;;;;;;;4993251;28;20514;-77
2022/07/27 13:23:33;;;;;;;3.27;2.00;;;;;;;;;;4993412;28;20491;-78
2022/07/27 13:26:00;;;;;;;3.10;2.33;;;;;;;;;;4993078;28;20498;-76
2022/07/27 13:28:27;;;;;;;4.70;2.47;;;;;;;;;;4993521;28;20476;-76
2022/07/27 13:30:55;;;;;;;2.40;2.30;;;;;;;;;;4994925;28;20452;-76
2022/07/27 13:33:24;;;;;;;2.73;2.50;;;;;;;;;;4992750;28;20486;-78
2022/07/27 13:35:51;;;;;;;3.87;2.13;;;;;;;;;;4993416;28;21013;-76
2022/07/27 13:38:18;;;;;;;2.50;2.30;;;;;;;;;;4993033;28;20499;-76
2022/07/27 13:40:45;;;;;;;3.33;2.37;;;;;;;;;;4992620;28;20956;-77
2022/07/27 13:43:12;;;;;;;2.20;2.10;;;;;;;;;;4992957;28;20484;-76
2022/07/27 13:45:39;;;;;;;2.30;2.20;;;;;;;;;;4993086;28;20440;-76
2022/07/27 13:48:06;;;;;;;4.30;2.37;;;;;;;;;;4992791;28;20479;-76
2022/07/27 13:50:34;;;;;;;2.50;2.17;;;;;;;;;;4992715;28;20765;-76
2022/07/27 13:53:01;;;;;;;2.53;2.33;;;;;;;;;;4992108;28;20448;-76
2022/07/27 13:55:29;;;;;;;2.70;2.20;;;;;;;;;;4992250;28;20503;-75
2022/07/27 13:57:56;;;;;;;2.10;2.00;;;;;;;;;;4994796;28;20460;-76
2022/07/27 14:00:23;;;;;;;2.43;2.30;;;;;;;;;;4994495;28;20503;-76
2022/07/27 14:02:51;;;;;;;2.90;2.60;;;;;;;;;;4992472;28;20522;-77
2022/07/27 14:05:18;;;;;;;2.43;2.23;;;;;;;;;;4992270;28;20871;-76
2022/07/27 14:07:47;;;;;;;2.13;1.90;;;;;;;;;;4992587;28;20522;-78
2022/07/27 14:10:38;;;;;;;3.33;2.40;;;;;;;;;;5003825;28;20473;-77
2022/07/27 14:13:06;;;;;;;2.60;2.40;;;;;;;;;;5011410;28;20935;-76
2022/07/27 14:15:33;;;;;;;4.97;2.33;;;;;;;;;;5011540;28;20975;-76
2022/07/27 14:18:00;;;;;;;2.30;2.10;;;;;;;;;;5011504;28;20509;-76
2022/07/27 14:20:27;;;;;;;2.60;2.10;;;;;;;;;;5013380;28;20440;-76
2022/07/27 14:22:55;;;;;;;2.33;2.20;;;;;;;;;;5013808;28;20447;-76
2022/07/27 14:25:23;;;;;;;2.70;2.50;;;;;;;;;;5012793;28;20932;-77
2022/07/27 14:27:50;;;;;;;2.33;2.13;;;;;;;;;;5012001;28;20451;-76
2022/07/27 14:30:17;;;;;;;1.83;1.73;;;;;;;;;;5011806;28;20523;-75
2022/07/27 14:32:44;;;;;;;2.77;2.40;;;;;;;;;;5011189;28;20541;-77
2022/07/27 14:35:11;;;;;;;2.23;2.03;;;;;;;;;;5011314;28;21192;-77
2022/07/27 14:37:38;;;;;;;2.00;1.90;;;;;;;;;;5012658;28;20440;-77
2022/07/27 14:40:07;;;;;;;3.07;2.20;;;;;;;;;;5011964;28;20450;-77
2022/07/27 14:42:34;;;;;;;2.30;2.20;;;;;;;;;;5011959;28;20498;-76
2022/07/27 14:45:01;;;;;;;2.20;2.10;;;;;;;;;;5011581;28;20483;-79
2022/07/27 14:47:29;;;;;;;2.57;2.47;;;;;;;;;;5011924;28;20447;-76
2022/07/27 14:49:56;;;;;;;2.43;2.30;;;;;;;;;;5012785;28;20447;-78
2022/07/27 14:52:23;;;;;;;2.57;2.47;;;;;;;;;;5011651;28;20880;-78